Flight Track Log - Related Links

Times and Time Zones

All times are in EDT time to prevent confusion due to time zone crossing. See the SWA2166 flight status page for this flight to view local times or setup timezone preferences in your user account.

Time Position Orientation Groundspeed Altitude Reporting Facility
EDT Latitude Longitude Course Direction KTS MPH feet Rate Location/Type
Mon 11:08:34 PM 33.6531 -117.8828 193° South 155 178 1,400  Level Los Angeles Center
Mon 11:09:35 PM 33.6106 -117.8947 193° South 155 178 2,800 1,951 Climbing Los Angeles Center
Mon 11:10:37 PM 33.5428 -117.8811 170° South 220 253 5,400 3,097 Climbing Los Angeles Center
Mon 11:11:39 PM 33.5072 -117.8203 125° Southeast 244 281 9,200 2,927 Climbing Los Angeles Center
Mon 11:12:40 PM 33.5269 -117.7347 75° East 263 303 11,400 2,488 Climbing Los Angeles Center
Mon 11:13:42 PM 33.5519 -117.6236 75° East 347 399 14,300 3,000 Climbing Los Angeles Center
Mon 11:14:44 PM 33.5789 -117.5058 75° East 364 419 17,600 2,952 Climbing Los Angeles Center
Mon 11:15:46 PM 33.5889 -117.3792 85° East 380 437 20,400 2,585 Climbing Los Angeles Center
Mon 11:16:47 PM 33.5908 -117.2475 89° East 391 450 22,900 1,268 Climbing Los Angeles Center
Mon 11:17:49 PM 33.5989 -117.0853 87° East 418 481 23,000 1,161 Climbing Los Angeles Center
Mon 11:18:51 PM 33.6039 -116.9406 88° East 419 482 25,300 2,049 Climbing Los Angeles Center
Mon 11:19:52 PM 33.6078 -116.7983 88° East 429 494 27,200 2,000 Climbing Los Angeles Center
Mon 11:20:54 PM 33.6136 -116.6439 87° East 455 524 29,400 2,323 Climbing Los Angeles Center
Mon 11:21:56 PM 33.6178 -116.4894 88° East 460 529 32,000 1,756 Climbing Los Angeles Center
Mon 11:22:57 PM 33.6228 -116.3428 88° East 453 521 33,000 488 Climbing Los Angeles Center
Mon 11:23:59 PM 33.6281 -116.1947 88° East 447 514 33,000  Level Los Angeles Center
Mon 11:25:01 PM 33.6267 -116.0439 91° East 447 514 33,000  Level Los Angeles Center
Mon 11:26:03 PM 33.6161 -115.8678 94° East 444 511 33,000  Level Los Angeles Center
Mon 11:27:04 PM 33.6028 -115.7222 96° East 439 505 33,000  Level Los Angeles Center
Mon 11:28:06 PM 33.5908 -115.5747 96° East 440 506 33,000  Level Los Angeles Center
Mon 11:29:08 PM 33.5794 -115.4286 95° East 440 506 33,000  Level Los Angeles Center
Mon 11:30:09 PM 33.5675 -115.2806 95° East 443 510 33,000  Level Los Angeles Center
Mon 11:31:11 PM 33.5539 -115.1339 96° East 443 510 33,000  Level Los Angeles Center
Mon 11:32:13 PM 33.5425 -114.9856 95° East 444 511 33,000  Level Los Angeles Center
Mon 11:33:14 PM 33.5275 -114.8369 97° East 448 516 33,000  Level Los Angeles Center
Mon 11:34:16 PM 33.5133 -114.6606 95° East 448 516 33,000 -48 Level Los Angeles Center
Mon 11:35:18 PM 33.5003 -114.5133 96° East 448 516 32,900 -1,366 Descending Los Angeles Center
Mon 11:36:19 PM 33.4878 -114.3689 96° East 440 506 30,200 -2,780 Descending Los Angeles Center
Mon 11:37:21 PM 33.4731 -114.2214 97° East 445 512 27,200 -2,516 Descending Los Angeles Center
Mon 11:38:23 PM 33.4594 -114.0731 96° East 447 514 25,000 -1,073 Descending Los Angeles Center
Mon 11:39:24 PM 33.4331 -113.9367 103° East 426 490 25,000  Level Los Angeles Center
Mon 11:40:26 PM 33.4061 -113.7986 103° East 427 491 25,000 -48 Level Los Angeles Center
Mon 11:41:28 PM 33.3736 -113.6353 103° East 422 486 24,900 -1,220 Descending Los Angeles Center
Mon 11:42:29 PM 33.3442 -113.4989 104° East 416 479 22,500 -1,512 Descending Los Angeles Center
Mon 11:43:31 PM 33.3178 -113.3686 104° East 404 465 21,800 -1,403 Descending Los Angeles Center
Mon 11:44:33 PM 33.2919 -113.2394 103° East 401 461 19,600 -2,177 Descending Los Angeles Center
Mon 11:45:35 PM 33.2731 -113.1189 101° East 378 435 17,300 -1,248 Descending Los Angeles Center
Mon 11:46:38 PM 33.2833 -112.9833 85° East 367 422 17,000 -194 Descending Phoenix TRACON
Mon 11:47:08 PM 33.2833 -112.9167 90° East 362 417 17,000 -667 Level Phoenix TRACON
Mon 11:48:08 PM 33.2833 -112.8000 90° East 346 398 16,000 -526 Descending Phoenix TRACON
Mon 11:49:02 PM 33.2811 -112.7181 92° East 338 389 16,000 -828 Level Albuquerque Center
Mon 11:50:04 PM 33.2844 -112.6111 88° East 327 376 14,400 -1,597 Descending Albuquerque Center
Mon 11:51:06 PM 33.2889 -112.5033 87° East 309 356 12,700 -1,512 Descending Albuquerque Center
Mon 11:52:07 PM 33.2911 -112.4025 88° East 307 353 11,300 -829 Descending Albuquerque Center
Mon 11:53:09 PM 33.2950 -112.3086 87° East 288 331 11,000 -585 Descending Albuquerque Center
Mon 11:54:10 PM 33.3014 -112.2233 85° East 264 304 10,100 -976 Descending Albuquerque Center
Mon 11:55:12 PM 33.3086 -112.1239 85° East 256 295 9,000 -878 Descending Albuquerque Center
Mon 11:56:13 PM 33.3239 -112.0456 77° East 245 282 8,300 -878 Descending Albuquerque Center
Mon 11:57:15 PM 33.3428 -111.9692 73° East 244 281 7,200 -634 Descending Albuquerque Center
Mon 11:58:16 PM 33.3453 -111.8956 88° East 221 254 7,000 -590 Descending Albuquerque Center
Mon 11:59:17 PM 33.3447 -111.8317 91° East 199 229 6,000 -927 Descending Albuquerque Center
Tue 12:00:19 AM 33.3589 -111.7764 73° East 200 230 5,100 -634 Descending Albuquerque Center
Tue 12:01:20 AM 33.4067 -111.7914 345° North 183 211 4,700 -634 Descending Albuquerque Center
Tue 12:02:22 AM 33.4244 -111.8467 291° West 180 207 3,800 -936 Descending Albuquerque Center
Tue 12:03:09 AM 33.4333 -111.9000 281° West 174 200 3,000 -1,009 Descending Phoenix TRACON
Tue 12:04:09 AM 33.4333 -111.9500 270° West 143 165 2,000 -1,000 Descending Phoenix TRACON

Login

Don't have an account? Register now (free) for customized features, flight alerts, and more!